Alpha Friendship — SVAV9 — position and weather

sailwx.info

Track history (hours):
 
Tides and Currents Weather Stations Pressure Air Temp Water Temp Dewpoint Dewpoint Depression Visibility Wind Speed Wind Dir Waves Ship Positions

Alpha Friendship

Last reported at 2014-Jul-11 12:25 UTC. Time now 2014-Jul-28 16:32 UTC.
Position S 34°45' E 021°34'.
Warning: this ship's position is 17 days out of date.

Length 280 m; draft 17.7 m.

Type: Cargo ship. MMSI: 240965000.

Date/timePositionNaut miles runAvg speedWind from/ knotsBaromVisibWave heightAir tempDewpointWater temp
2014-Jul-11 12:25S 34°45' E 021°34'66 9.5
2014-Jul-11 05:30S 34°56' E 020°15'64 9.0
2014-Jul-10 22:24S 34°42' E 018°60'8 9.3
2014-Jul-10 21:33S 34°38' E 018°51'9 9.0
2014-Jul-10 20:33S 34°35' E 018°41'17 8.6
2014-Jul-10 18:33S 34°26' E 018°23'16 7.9
2014-Jul-10 16:32S 34°15' E 018°10'8 7.9
2014-Jul-10 15:33S 34°09' E 018°03'8 8.0
2014-Jul-10 14:33S 34°03' E 017°57'10 7.9
2014-Jul-10 13:20S 33°56' E 017°49'17 8.5
2014-Jul-10 11:18S 33°42' E 017°37'7 8.6
2014-Jul-10 10:32S 33°36' E 017°32'46 8.7
2014-Jul-10 05:14S 32°60' E 016°58'  
Track history (hours):
 
Tides and Currents Weather Stations Pressure Air Temp Water Temp Dewpoint Dewpoint Depression Visibility Wind Speed Wind Dir Waves Ship Positions

Alpha Friendship

Last reported at 2014-Jul-11 12:25 UTC. Time now 2014-Jul-28 16:32 UTC.
Position S 34°45' E 021°34'.
Warning: this ship's position is 17 days out of date.

Length 280 m; draft 17.7 m.

Type: Cargo ship. MMSI: 240965000.

Date/timePositionNaut miles runAvg speedWind from/ knotsBaromVisibWave heightAir tempDewpointWater temp
2014-Jul-11 12:25S 34°45' E 021°34'66 9.5
2014-Jul-11 05:30S 34°56' E 020°15'64 9.0
2014-Jul-10 22:24S 34°42' E 018°60'8 9.3
2014-Jul-10 21:33S 34°38' E 018°51'9 9.0
2014-Jul-10 20:33S 34°35' E 018°41'17 8.6
2014-Jul-10 18:33S 34°26' E 018°23'16 7.9
2014-Jul-10 16:32S 34°15' E 018°10'8 7.9
2014-Jul-10 15:33S 34°09' E 018°03'8 8.0
2014-Jul-10 14:33S 34°03' E 017°57'10 7.9
2014-Jul-10 13:20S 33°56' E 017°49'17 8.5
2014-Jul-10 11:18S 33°42' E 017°37'7 8.6
2014-Jul-10 10:32S 33°36' E 017°32'46 8.7
2014-Jul-10 05:14S 32°60' E 016°58'  

Dump ship's entire track history